LPPT

Lisbon Humberto Delgado Airport

Airport
ICAO code
LPPT
IATA Code
LIS
Summary
ICAO Region
EUR
ICAO Territory
Location

Portela, Lisbon

Serving
Lisbon
Elevation
374 ft
Coordinates
38° 46' 31" N , 9° 8' 5" W
KCC
Metar
Observation
LPPT 071900Z 30012KT 9999 FEW025 20/13 Q1017
Station
Lisboa / Portela
Date/Time
2022-10-07 19:00:00
Wind direction
300°
Wind speed
12 kts
Lowest cloud amount
few clouds
Temperature
20°C
Dew point
13°C
Humidity
64%
QNH
1017 hPa
Weather condition
n/a

Lisbon Portela Airport, also known as Lisbon Airport, is located 7 km north of Castle of São Jorge in the city of Lisbon, the capital of Portugal.

Climatology

Dry-summer subtropical ”Mediterranean" climate (Köppen climate classification Csa)

Runways

Designator Length Width Surface Rops
17/35 2400 45 ASP Yes/Yes
3/21 3805 45 ASP Yes/Yes

SKYbrary Partners:

Safety knowledge contributed by: